createdAt,value
2019-01-11T00:02:04.472Z,4.07
2019-01-11T00:04:33.300Z,3.97
2019-01-11T00:07:01.546Z,3.70
2019-01-11T00:09:30.108Z,4.07
2019-01-11T00:11:58.302Z,4.13
2019-01-11T00:14:27.000Z,3.90
2019-01-11T00:16:55.178Z,4.60
2019-01-11T00:19:23.325Z,5.00
2019-01-11T00:21:51.527Z,5.70
2019-01-11T00:24:19.724Z,5.83
2019-01-11T00:26:47.879Z,6.33
2019-01-11T00:29:16.059Z,6.50
2019-01-11T00:31:44.291Z,6.90
2019-01-11T00:34:12.499Z,6.97
2019-01-11T00:36:40.972Z,7.37
2019-01-11T00:39:09.525Z,6.90
2019-01-11T00:41:37.783Z,7.67
2019-01-11T00:44:06.096Z,7.90
2019-01-11T00:46:34.269Z,7.33
2019-01-11T00:49:02.520Z,8.60
2019-01-11T00:51:30.765Z,7.97
2019-01-11T00:53:58.917Z,9.00
2019-01-11T00:56:27.503Z,9.40
2019-01-11T00:58:55.785Z,9.33
2019-01-11T01:01:26.996Z,9.70
2019-01-11T01:03:55.542Z,10.10
2019-01-11T01:06:23.757Z,9.80
2019-01-11T01:08:52.009Z,9.70
2019-01-11T01:11:20.543Z,9.67
2019-01-11T01:13:48.713Z,9.70
2019-01-11T01:16:16.896Z,8.80
2019-01-11T01:18:45.212Z,8.73
2019-01-11T01:21:13.542Z,7.83
2019-01-11T01:23:42.142Z,8.10
2019-01-11T01:26:10.435Z,7.63
2019-01-11T01:28:38.578Z,7.83
2019-01-11T01:31:06.891Z,8.53
2019-01-11T01:33:35.048Z,7.97
2019-01-11T01:36:03.213Z,8.47
2019-01-11T01:38:31.444Z,9.80
2019-01-11T01:40:59.679Z,9.20
2019-01-11T01:43:28.326Z,9.47
2019-01-11T01:45:56.859Z,9.63
2019-01-11T01:48:25.023Z,9.80
2019-01-11T01:50:53.190Z,10.13
2019-01-11T01:53:21.486Z,10.77
2019-01-11T01:55:49.643Z,11.47
2019-01-11T01:58:17.803Z,11.30
2019-01-11T02:00:45.949Z,10.73
2019-01-11T02:03:14.188Z,11.50
2019-01-11T02:05:42.351Z,12.27
2019-01-11T02:08:10.594Z,11.77
2019-01-11T02:10:39.010Z,12.10
2019-01-11T02:13:07.608Z,11.80
2019-01-11T02:15:35.900Z,12.13
2019-01-11T02:18:04.149Z,11.57
2019-01-11T02:20:32.731Z,12.90
2019-01-11T02:23:01.631Z,10.93
2019-01-11T02:25:29.867Z,11.03
2019-01-11T02:27:58.092Z,11.43
2019-01-11T02:30:26.351Z,11.17
2019-01-11T02:32:54.510Z,11.77
2019-01-11T02:35:23.138Z,11.77
2019-01-11T02:37:51.719Z,11.27
2019-01-11T02:40:19.936Z,11.00
2019-01-11T02:42:48.185Z,11.17
2019-01-11T02:45:17.314Z,11.47
2019-01-11T02:47:46.000Z,12.63
2019-01-11T02:50:14.903Z,12.23
2019-01-11T02:52:43.757Z,12.43
2019-01-11T02:55:12.546Z,12.83
2019-01-11T02:57:40.703Z,11.57
2019-01-11T03:00:10.748Z,11.40
2019-01-11T03:02:38.905Z,11.20
2019-01-11T03:05:08.081Z,11.20
2019-01-11T03:07:36.285Z,11.07
2019-01-11T03:10:06.283Z,11.70
2019-01-11T03:12:34.509Z,10.73
2019-01-11T03:15:02.783Z,10.40
2019-01-11T03:17:31.032Z,10.30
2019-01-11T03:19:59.179Z,10.83
2019-01-11T03:22:27.364Z,10.73
2019-01-11T03:24:55.800Z,11.00
2019-01-11T03:27:24.389Z,11.63
2019-01-11T03:29:52.685Z,10.73
2019-01-11T03:32:20.867Z,11.37
2019-01-11T03:35:07.106Z,11.37
2019-01-11T03:37:35.306Z,10.40
2019-01-11T03:40:05.148Z,10.90
2019-01-11T03:42:33.485Z,11.17
2019-01-11T03:45:01.721Z,10.77
2019-01-11T03:47:29.962Z,10.70
2019-01-11T03:49:58.137Z,11.67
2019-01-11T03:52:26.300Z,10.70
2019-01-11T03:54:54.477Z,11.27
2019-01-11T03:57:23.049Z,11.53
2019-01-11T03:59:51.895Z,11.20
2019-01-11T04:02:20.236Z,11.47
2019-01-11T04:04:48.401Z,10.87
2019-01-11T04:07:16.950Z,10.60
2019-01-11T04:09:45.529Z,10.27
2019-01-11T04:12:13.729Z,10.37
2019-01-11T04:14:41.922Z,11.13
2019-01-11T04:17:10.181Z,9.87
2019-01-11T04:19:38.340Z,10.23
2019-01-11T04:22:08.215Z,11.20
2019-01-11T04:24:38.125Z,10.33
2019-01-11T04:27:06.445Z,10.00
2019-01-11T04:29:34.605Z,9.77
2019-01-11T04:32:03.053Z,10.70
2019-01-11T04:34:31.254Z,10.37
2019-01-11T04:36:59.740Z,9.90
2019-01-11T04:39:28.306Z,10.03
2019-01-11T04:41:56.444Z,9.83
2019-01-11T04:44:24.668Z,10.63
2019-01-11T04:46:53.087Z,10.37
2019-01-11T04:49:21.408Z,9.87
2019-01-11T04:51:49.653Z,9.60
2019-01-11T04:54:18.154Z,9.80
2019-01-11T04:56:46.658Z,10.50
2019-01-11T04:59:14.904Z,10.37
2019-01-11T05:01:43.083Z,12.93
2019-01-11T05:04:11.536Z,13.00
2019-01-11T05:06:40.071Z,13.57
2019-01-11T05:09:08.302Z,13.47
2019-01-11T05:11:36.506Z,11.27
2019-01-11T05:14:05.129Z,10.90
2019-01-11T05:16:39.321Z,10.37
2019-01-11T05:19:03.176Z,10.50
2019-01-11T05:21:31.439Z,10.13
2019-01-11T05:24:01.013Z,10.70
2019-01-11T05:26:29.401Z,9.90
2019-01-11T05:28:57.653Z,10.20
2019-01-11T05:31:25.800Z,10.17
2019-01-11T05:33:54.045Z,10.73
2019-01-11T05:36:22.196Z,10.67
2019-01-11T05:38:50.717Z,10.63
2019-01-11T05:41:19.389Z,10.57
2019-01-11T05:43:47.572Z,10.90
2019-01-11T05:46:15.737Z,11.07
2019-01-11T05:48:43.923Z,11.37
2019-01-11T05:51:12.080Z,11.07
2019-01-11T05:53:40.230Z,10.87
2019-01-11T05:56:08.937Z,11.33
2019-01-11T05:58:39.082Z,11.27
2019-01-11T06:01:07.996Z,11.53
2019-01-11T06:03:36.293Z,11.53
2019-01-11T06:06:05.168Z,11.43
2019-01-11T06:08:33.764Z,11.27
2019-01-11T06:11:02.349Z,12.07
2019-01-11T06:13:30.500Z,12.73
2019-01-11T06:15:58.675Z,12.70
2019-01-11T06:18:26.904Z,12.70
2019-01-11T06:20:55.617Z,13.13
2019-01-11T06:23:24.198Z,12.60
2019-01-11T06:25:52.734Z,12.23
2019-01-11T06:28:21.027Z,13.07
2019-01-11T06:30:49.270Z,13.17
2019-01-11T06:33:17.817Z,13.47
2019-01-11T06:35:45.971Z,13.87
2019-01-11T06:38:14.165Z,14.33
2019-01-11T06:40:42.351Z,12.57
2019-01-11T06:43:11.006Z,13.43
2019-01-11T06:45:39.202Z,14.27
2019-01-11T06:48:09.107Z,13.50
2019-01-11T06:50:37.261Z,14.80
2019-01-11T06:53:05.485Z,14.03
2019-01-11T06:55:33.771Z,14.10
2019-01-11T06:58:02.065Z,14.50
2019-01-11T07:00:30.262Z,14.77
2019-01-11T07:02:58.467Z,14.93
2019-01-11T07:05:27.034Z,14.30
2019-01-11T07:07:55.555Z,13.77
2019-01-11T07:10:23.937Z,13.67
2019-01-11T07:12:52.415Z,13.17
2019-01-11T07:15:21.065Z,13.97
2019-01-11T07:17:49.945Z,13.50
2019-01-11T07:20:18.254Z,13.27
2019-01-11T07:22:46.438Z,13.73
2019-01-11T07:25:15.668Z,12.80
2019-01-11T07:27:57.621Z,12.73
2019-01-11T07:30:27.405Z,11.97
2019-01-11T07:32:55.986Z,12.80
2019-01-11T07:35:25.794Z,13.00
2019-01-11T07:37:53.972Z,12.60
2019-01-11T07:40:22.217Z,12.83
2019-01-11T07:42:50.448Z,12.50
2019-01-11T07:45:19.019Z,12.90
2019-01-11T07:47:47.625Z,13.40
2019-01-11T07:50:16.184Z,12.27
2019-01-11T07:52:44.443Z,12.97
2019-01-11T07:55:12.759Z,13.27
2019-01-11T07:57:40.913Z,12.57
2019-01-11T08:00:10.727Z,13.43
2019-01-11T08:02:38.969Z,13.13
2019-01-11T08:05:07.546Z,13.23
2019-01-11T08:07:36.401Z,13.60
2019-01-11T08:10:06.004Z,13.33
2019-01-11T08:12:34.614Z,13.43
2019-01-11T08:15:03.047Z,13.17
2019-01-11T08:17:31.549Z,13.83
2019-01-11T08:20:00.172Z,13.47
2019-01-11T08:22:32.828Z,12.57
2019-01-11T08:25:02.670Z,13.73
2019-01-11T08:27:31.345Z,13.57
2019-01-11T08:29:59.503Z,13.73
2019-01-11T08:32:27.749Z,13.60
2019-01-11T08:34:55.913Z,14.40
2019-01-11T08:37:24.477Z,12.97
2019-01-11T08:39:53.020Z,14.27
2019-01-11T08:42:21.597Z,14.63
2019-01-11T08:44:49.806Z,14.33
2019-01-11T08:47:18.082Z,13.80
2019-01-11T08:49:46.618Z,13.73
2019-01-11T08:52:15.157Z,14.30
2019-01-11T08:54:43.673Z,13.80
2019-01-11T08:57:11.927Z,13.10
2019-01-11T08:59:40.114Z,13.20
2019-01-11T09:02:08.678Z,13.03
2019-01-11T09:04:37.180Z,12.33
2019-01-11T09:07:05.745Z,13.07
2019-01-11T09:09:33.921Z,12.77
2019-01-11T09:12:02.443Z,12.43
2019-01-11T09:14:35.028Z,13.13
2019-01-11T09:17:03.543Z,13.37
2019-01-11T09:19:32.305Z,13.90
2019-01-11T09:22:00.447Z,12.40
2019-01-11T09:24:28.636Z,12.53
2019-01-11T09:26:56.864Z,13.80
2019-01-11T09:29:25.745Z,12.27
2019-01-11T09:31:54.214Z,12.93
2019-01-11T09:34:22.428Z,13.33
2019-01-11T09:36:50.851Z,13.30
2019-01-11T09:39:19.025Z,13.97
2019-01-11T09:41:47.223Z,14.17
2019-01-11T09:44:15.722Z,13.87
2019-01-11T09:46:44.328Z,13.43
2019-01-11T09:49:12.485Z,13.83
2019-01-11T09:51:40.722Z,14.33
2019-01-11T09:54:09.004Z,13.87
2019-01-11T09:56:37.161Z,14.87
2019-01-11T09:59:05.425Z,14.43
2019-01-11T10:01:33.957Z,14.50
2019-01-11T10:04:02.154Z,14.73
2019-01-11T10:06:32.020Z,14.97
2019-01-11T10:09:00.201Z,13.50
2019-01-11T10:11:28.378Z,14.60
2019-01-11T10:13:57.740Z,15.43
2019-01-11T10:16:26.222Z,14.33
2019-01-11T10:18:54.726Z,13.43
2019-01-11T10:21:24.064Z,13.40
2019-01-11T10:23:52.669Z,13.50
2019-01-11T10:26:21.154Z,13.47
2019-01-11T10:28:50.978Z,14.47
2019-01-11T10:31:19.473Z,14.30
2019-01-11T10:33:47.645Z,13.63
2019-01-11T10:36:15.817Z,14.37
2019-01-11T10:38:43.982Z,14.50
2019-01-11T10:41:12.158Z,14.77
2019-01-11T10:43:40.385Z,14.60
2019-01-11T10:46:10.189Z,14.00
2019-01-11T10:48:38.348Z,14.37
2019-01-11T10:51:06.538Z,13.63
2019-01-11T10:53:34.689Z,14.57
2019-01-11T10:56:03.305Z,13.27
2019-01-11T10:58:31.481Z,13.93
2019-01-11T11:00:59.642Z,13.67
2019-01-11T11:03:28.102Z,13.97
2019-01-11T11:05:56.279Z,12.67
2019-01-11T11:08:24.498Z,13.67
2019-01-11T11:10:52.958Z,13.07
2019-01-11T11:13:21.133Z,12.43
2019-01-11T11:15:49.697Z,13.63
2019-01-11T11:18:18.246Z,12.40
2019-01-11T11:20:46.421Z,13.57
2019-01-11T11:23:14.558Z,13.57
2019-01-11T11:25:42.743Z,12.80
2019-01-11T11:28:10.902Z,12.93
2019-01-11T11:30:39.173Z,12.33
2019-01-11T11:33:08.010Z,12.07
2019-01-11T11:35:36.293Z,11.93
2019-01-11T11:38:04.622Z,12.53
2019-01-11T11:40:32.957Z,12.30
2019-01-11T11:43:01.471Z,12.57
2019-01-11T11:45:30.080Z,12.23
2019-01-11T11:47:58.608Z,12.13
2019-01-11T11:50:26.790Z,12.63
2019-01-11T11:52:55.270Z,12.27
2019-01-11T11:55:23.766Z,11.80
2019-01-11T11:57:52.007Z,11.93
2019-01-11T12:00:21.232Z,12.00
2019-01-11T12:02:49.532Z,11.67
2019-01-11T12:05:17.993Z,11.67
2019-01-11T12:07:46.570Z,10.87
2019-01-11T12:10:16.005Z,11.63
2019-01-11T12:12:44.579Z,12.37
2019-01-11T12:15:14.482Z,13.47
2019-01-11T12:17:43.046Z,13.30
2019-01-11T12:20:20.602Z,12.57
2019-01-11T12:22:49.232Z,11.83
2019-01-11T12:25:17.403Z,12.53
2019-01-11T12:27:45.574Z,11.47
2019-01-11T12:30:14.540Z,10.93
2019-01-11T12:32:43.073Z,11.07
2019-01-11T12:35:12.042Z,10.80
2019-01-11T12:37:40.276Z,10.83
2019-01-11T12:40:09.934Z,10.23
2019-01-11T12:42:38.228Z,11.63
2019-01-11T12:45:07.850Z,11.10
2019-01-11T12:47:36.030Z,10.43
2019-01-11T12:50:05.745Z,10.77
2019-01-11T12:52:33.946Z,10.37
2019-01-11T12:55:02.443Z,10.50
2019-01-11T12:57:30.884Z,9.90
2019-01-11T12:59:59.094Z,10.50
2019-01-11T13:02:27.258Z,9.80
2019-01-11T13:04:55.819Z,9.90
2019-01-11T13:07:24.053Z,10.13
2019-01-11T13:09:52.178Z,10.07
2019-01-11T13:12:22.373Z,9.80
2019-01-11T13:14:50.617Z,10.53
2019-01-11T13:17:18.778Z,9.57
2019-01-11T13:19:47.250Z,9.60
2019-01-11T13:22:15.412Z,9.70
2019-01-11T13:24:43.566Z,10.50
2019-01-11T13:27:11.731Z,9.93
2019-01-11T13:29:39.921Z,10.27
2019-01-11T13:32:08.222Z,10.20
2019-01-11T13:34:36.407Z,10.63
2019-01-11T13:37:04.744Z,10.00
2019-01-11T13:39:33.016Z,9.97
2019-01-11T13:42:01.189Z,9.47
2019-01-11T13:44:29.725Z,9.07
2019-01-11T13:46:57.982Z,9.63
2019-01-11T13:49:26.550Z,9.10
2019-01-11T13:51:55.193Z,9.03
2019-01-11T13:54:23.467Z,8.30
2019-01-11T13:56:51.639Z,8.87
2019-01-11T13:59:19.896Z,9.00
2019-01-11T14:01:48.480Z,8.30
2019-01-11T14:04:16.963Z,8.73
2019-01-11T14:06:45.212Z,8.60
2019-01-11T14:09:13.363Z,7.50
2019-01-11T14:11:41.620Z,7.60
2019-01-11T14:14:09.841Z,6.63
2019-01-11T14:16:38.048Z,7.03
2019-01-11T14:19:06.273Z,7.40
2019-01-11T14:21:34.417Z,7.37
2019-01-11T14:24:02.615Z,6.40
2019-01-11T14:26:31.170Z,6.13
2019-01-11T14:28:59.403Z,6.70
2019-01-11T14:31:27.566Z,5.77
2019-01-11T14:33:55.866Z,5.57
2019-01-11T14:36:24.132Z,5.03
2019-01-11T14:38:52.276Z,5.53
2019-01-11T14:41:20.698Z,5.87
2019-01-11T14:43:49.648Z,6.07
2019-01-11T14:46:17.900Z,5.40
2019-01-11T14:48:46.040Z,5.20
2019-01-11T14:51:14.458Z,6.00
2019-01-11T14:53:42.946Z,6.00
2019-01-11T14:56:11.355Z,6.40
2019-01-11T14:58:39.504Z,5.53
2019-01-11T15:01:08.017Z,6.10
2019-01-11T15:03:36.244Z,5.83
2019-01-11T15:06:04.384Z,5.67
2019-01-11T15:08:32.543Z,6.07
2019-01-11T15:11:00.722Z,6.30
2019-01-11T15:13:29.160Z,5.83
2019-01-11T15:15:57.335Z,6.23
2019-01-11T15:18:25.766Z,5.73
2019-01-11T15:20:54.276Z,6.77
2019-01-11T15:23:22.435Z,6.50
2019-01-11T15:25:50.886Z,6.47
2019-01-11T15:28:19.365Z,6.73
2019-01-11T15:30:47.576Z,6.50
2019-01-11T15:33:15.725Z,6.20
2019-01-11T15:35:43.861Z,6.40
2019-01-11T15:38:12.112Z,6.10
2019-01-11T15:40:40.341Z,5.67
2019-01-11T15:43:08.987Z,5.87
2019-01-11T15:45:37.205Z,5.60
2019-01-11T15:48:05.458Z,5.57
2019-01-11T15:50:44.147Z,5.87
2019-01-11T15:53:12.399Z,5.77
2019-01-11T15:55:40.985Z,6.43
2019-01-11T15:58:09.171Z,6.07
2019-01-11T16:00:41.566Z,5.40
2019-01-11T16:03:09.889Z,5.63
2019-01-11T16:05:38.058Z,6.60
2019-01-11T16:08:06.746Z,7.73
2019-01-11T16:10:35.387Z,10.50
2019-01-11T16:13:05.093Z,12.23
2019-01-11T16:15:43.944Z,10.70
2019-01-11T16:18:13.640Z,9.03
2019-01-11T16:20:41.814Z,7.80
2019-01-11T16:23:09.980Z,7.70
2019-01-11T16:25:38.382Z,7.50
2019-01-11T16:28:06.655Z,7.33
2019-01-11T16:30:34.815Z,8.40
2019-01-11T16:33:03.060Z,14.00
2019-01-11T16:35:31.231Z,39.43
2019-01-11T16:37:59.728Z,39.43
2019-01-11T16:40:27.899Z,23.70
2019-01-11T16:42:56.069Z,18.07
2019-01-11T16:45:24.241Z,19.53
2019-01-11T16:47:52.421Z,19.23
2019-01-11T16:50:20.950Z,17.97
2019-01-11T16:52:49.095Z,16.17
2019-01-11T16:55:17.360Z,14.63
2019-01-11T16:57:45.527Z,12.03
2019-01-11T17:00:17.798Z,11.80
2019-01-11T17:02:46.080Z,10.80
2019-01-11T17:05:14.542Z,10.37
2019-01-11T17:07:42.791Z,10.53
2019-01-11T17:10:12.259Z,9.33
2019-01-11T17:12:41.814Z,9.00
2019-01-11T17:15:11.903Z,8.60
2019-01-11T17:17:40.495Z,8.53
2019-01-11T17:20:10.278Z,8.27
2019-01-11T17:22:39.000Z,8.17
2019-01-11T17:25:07.341Z,8.07
2019-01-11T17:27:35.553Z,9.33
2019-01-11T17:30:05.470Z,8.07
2019-01-11T17:32:33.678Z,8.20
2019-01-11T17:35:02.009Z,8.33
2019-01-11T17:37:30.267Z,8.13
2019-01-11T17:39:58.776Z,8.20
2019-01-11T17:42:26.996Z,8.07
2019-01-11T17:44:55.188Z,8.03
2019-01-11T17:47:23.391Z,8.00
2019-01-11T17:49:51.546Z,8.63
2019-01-11T17:52:19.717Z,8.70
2019-01-11T17:54:47.868Z,8.97
2019-01-11T17:57:16.047Z,9.13
2019-01-11T17:59:44.210Z,8.97
2019-01-11T18:02:12.456Z,8.43
2019-01-11T18:04:41.017Z,9.00
2019-01-11T18:07:09.305Z,8.60
2019-01-11T18:09:37.777Z,9.03
2019-01-11T18:12:06.079Z,8.40
2019-01-11T18:14:34.263Z,8.93
2019-01-11T18:17:02.508Z,9.33
2019-01-11T18:19:30.668Z,10.13
2019-01-11T18:21:59.144Z,10.00
2019-01-11T18:24:27.309Z,10.03
2019-01-11T18:26:55.477Z,9.90
2019-01-11T18:29:23.730Z,10.47
2019-01-11T18:31:52.171Z,11.30
2019-01-11T18:34:20.413Z,12.00
2019-01-11T18:36:48.606Z,13.63
2019-01-11T18:39:16.796Z,27.63
2019-01-11T18:41:44.977Z,19.87
2019-01-11T18:44:13.168Z,28.27
2019-01-11T18:46:41.377Z,35.10
2019-01-11T18:49:09.959Z,46.60
2019-01-11T18:51:38.131Z,31.00
2019-01-11T18:54:06.317Z,26.27
2019-01-11T18:56:34.482Z,22.23
2019-01-11T18:59:02.657Z,23.47
2019-01-11T19:01:30.952Z,20.60
2019-01-11T19:03:59.117Z,16.77
2019-01-11T19:06:27.297Z,16.20
2019-01-11T19:08:55.730Z,15.53
2019-01-11T19:11:24.192Z,14.77
2019-01-11T19:13:52.381Z,14.77
2019-01-11T19:16:20.808Z,13.10
2019-01-11T19:18:48.960Z,11.77
2019-01-11T19:21:17.209Z,13.23
2019-01-11T19:23:45.355Z,12.63
2019-01-11T19:26:13.556Z,13.20
2019-01-11T19:28:41.773Z,11.50
2019-01-11T19:31:09.969Z,11.27
2019-01-11T19:33:38.811Z,10.93
2019-01-11T19:36:07.041Z,10.37
2019-01-11T19:38:36.001Z,10.27
2019-01-11T19:41:04.235Z,9.50
2019-01-11T19:43:32.468Z,9.87
2019-01-11T19:46:00.621Z,9.80
2019-01-11T19:48:29.079Z,9.50
2019-01-11T19:50:57.270Z,10.17
2019-01-11T19:53:27.688Z,8.97
2019-01-11T19:55:58.877Z,9.80
2019-01-11T19:58:25.230Z,8.70
2019-01-11T20:00:53.966Z,9.70
2019-01-11T20:03:22.183Z,9.87
2019-01-11T20:05:50.454Z,9.50
2019-01-11T20:08:18.679Z,9.60
2019-01-11T20:10:46.846Z,9.97
2019-01-11T20:13:15.352Z,8.80
2019-01-11T20:15:43.599Z,9.77
2019-01-11T20:18:12.403Z,9.50
2019-01-11T20:20:40.693Z,10.20
2019-01-11T20:23:10.038Z,9.37
2019-01-11T20:25:38.406Z,9.77
2019-01-11T20:28:06.627Z,9.53
2019-01-11T20:30:34.838Z,9.60
2019-01-11T20:33:03.115Z,10.33
2019-01-11T20:35:32.073Z,9.80
2019-01-11T20:38:00.414Z,10.03
2019-01-11T20:40:28.732Z,10.20
2019-01-11T20:42:56.884Z,10.03
2019-01-11T20:45:25.103Z,9.30
2019-01-11T20:47:53.249Z,10.40
2019-01-11T20:50:21.778Z,10.20
2019-01-11T20:52:50.392Z,10.67
2019-01-11T20:55:18.664Z,9.63
2019-01-11T20:57:46.982Z,10.67
2019-01-11T21:00:19.693Z,10.30
2019-01-11T21:02:47.921Z,11.00
2019-01-11T21:05:16.250Z,10.77
2019-01-11T21:07:44.495Z,10.83
2019-01-11T21:10:13.407Z,12.03
2019-01-11T21:12:41.660Z,10.83
2019-01-11T21:15:11.783Z,12.77
2019-01-11T21:17:40.034Z,14.87
2019-01-11T21:20:09.858Z,13.17
2019-01-11T21:22:38.081Z,14.53
2019-01-11T21:25:07.824Z,15.57
2019-01-11T21:27:36.038Z,15.83
2019-01-11T21:30:05.825Z,15.00
2019-01-11T21:32:34.032Z,14.60
2019-01-11T21:35:02.187Z,37.40
2019-01-11T21:37:30.729Z,24.60
2019-01-11T21:39:59.189Z,31.03
2019-01-11T21:42:27.374Z,34.60
2019-01-11T21:44:55.548Z,32.10
2019-01-11T21:47:24.054Z,30.10
2019-01-11T21:49:52.596Z,26.50
2019-01-11T21:52:21.094Z,25.33
2019-01-11T21:54:49.252Z,27.47
2019-01-11T21:57:17.417Z,24.23
2019-01-11T21:59:45.587Z,25.27
2019-01-11T22:02:13.788Z,23.13
2019-01-11T22:04:42.005Z,21.80
2019-01-11T22:07:10.279Z,23.67
2019-01-11T22:09:38.690Z,21.63
2019-01-11T22:12:07.141Z,19.77
2019-01-11T22:14:35.333Z,16.43
2019-01-11T22:17:03.567Z,16.10
2019-01-11T22:19:31.745Z,13.67
2019-01-11T22:21:59.909Z,13.73
2019-01-11T22:24:28.510Z,14.37
2019-01-11T22:26:56.952Z,14.73
2019-01-11T22:29:25.214Z,14.27
2019-01-11T22:31:53.688Z,12.63
2019-01-11T22:34:21.884Z,12.23
2019-01-11T22:36:50.316Z,12.27
2019-01-11T22:39:18.871Z,11.53
2019-01-11T22:41:47.063Z,11.23
2019-01-11T22:44:15.267Z,11.27
2019-01-11T22:46:43.483Z,10.37
2019-01-11T22:49:12.129Z,10.73
2019-01-11T22:51:40.678Z,10.73
2019-01-11T22:54:10.415Z,11.23
2019-01-11T22:56:39.230Z,10.47
2019-01-11T22:59:07.549Z,10.37
2019-01-11T23:01:43.033Z,9.93
2019-01-11T23:04:11.509Z,9.97
2019-01-11T23:06:41.288Z,10.40
2019-01-11T23:09:11.151Z,10.73
2019-01-11T23:12:08.272Z,9.87
2019-01-11T23:14:36.528Z,11.30
2019-01-11T23:17:06.218Z,10.73
2019-01-11T23:19:34.657Z,9.83
2019-01-11T23:22:02.898Z,10.90
2019-01-11T23:24:31.152Z,11.00
2019-01-11T23:26:59.629Z,10.10
2019-01-11T23:29:27.810Z,10.43
2019-01-11T23:31:56.321Z,11.33
2019-01-11T23:34:24.488Z,11.20
2019-01-11T23:36:52.652Z,10.83
2019-01-11T23:39:21.162Z,11.03
2019-01-11T23:41:49.342Z,10.93
2019-01-11T23:44:17.545Z,10.10
2019-01-11T23:46:45.975Z,10.27
2019-01-11T23:49:14.122Z,10.03
2019-01-11T23:51:42.621Z,10.57
2019-01-11T23:54:10.814Z,10.80
2019-01-11T23:56:38.970Z,11.20
2019-01-11T23:59:07.141Z,10.33
